createdAt,value
2022-12-13T00:01:11.384Z,13.80
2022-12-13T00:03:38.123Z,14.45
2022-12-13T00:06:06.708Z,13.75
2022-12-13T00:08:33.550Z,13.43
2022-12-13T00:11:01.462Z,13.40
2022-12-13T00:13:29.171Z,11.82
2022-12-13T00:16:00.861Z,13.13
2022-12-13T00:18:28.316Z,13.48
2022-12-13T00:20:55.058Z,12.40
2022-12-13T00:23:22.581Z,12.07
2022-12-13T00:25:49.441Z,12.75
2022-12-13T00:28:16.498Z,12.63
2022-12-13T00:30:43.431Z,12.30
2022-12-13T00:33:10.173Z,11.95
2022-12-13T00:35:41.452Z,12.55
2022-12-13T00:38:09.746Z,12.48
2022-12-13T00:40:36.527Z,13.02
2022-12-13T00:43:03.240Z,13.90
2022-12-13T00:45:30.189Z,13.18
2022-12-13T00:47:56.985Z,12.95
2022-12-13T00:50:23.685Z,12.98
2022-12-13T00:52:50.442Z,14.15
2022-12-13T00:55:17.354Z,13.48
2022-12-13T00:57:44.124Z,13.50
2022-12-13T01:00:12.054Z,13.85
2022-12-13T01:02:38.819Z,13.57
2022-12-13T01:05:05.698Z,13.52
2022-12-13T01:07:32.386Z,14.30
2022-12-13T01:09:59.154Z,13.98
2022-12-13T01:12:25.923Z,13.45
2022-12-13T01:14:56.036Z,13.48
2022-12-13T01:17:22.977Z,14.13
2022-12-13T01:19:49.622Z,13.90
2022-12-13T01:22:16.326Z,14.45
2022-12-13T01:24:43.138Z,14.77
2022-12-13T01:27:09.942Z,13.27
2022-12-13T01:29:37.420Z,13.90
2022-12-13T01:32:04.407Z,14.60
2022-12-13T01:34:31.365Z,15.00
2022-12-13T01:36:58.892Z,14.70
2022-12-13T01:39:27.195Z,14.25
2022-12-13T01:42:00.134Z,14.90
2022-12-13T01:45:03.996Z,15.60
2022-12-13T01:47:43.537Z,14.20
2022-12-13T01:50:17.046Z,14.38
2022-12-13T01:52:45.873Z,14.75
2022-12-13T01:55:14.197Z,15.18
2022-12-13T01:57:45.692Z,14.20
2022-12-13T02:00:14.027Z,14.90
2022-12-13T02:02:41.005Z,13.30
2022-12-13T02:05:14.635Z,14.68
2022-12-13T02:07:43.484Z,13.60
2022-12-13T02:10:11.528Z,14.52
2022-12-13T02:12:39.613Z,14.02
2022-12-13T02:15:13.142Z,14.50
2022-12-13T02:17:56.739Z,13.15
2022-12-13T02:20:51.066Z,15.10
2022-12-13T02:24:01.160Z,14.20
2022-12-13T02:26:50.865Z,12.93
2022-12-13T02:29:48.096Z,14.10
2022-12-13T02:32:25.230Z,13.57
2022-12-13T02:35:13.851Z,13.75
2022-12-13T02:37:50.762Z,13.43
2022-12-13T02:40:32.662Z,14.20
2022-12-13T02:43:16.561Z,13.02
2022-12-13T02:45:51.258Z,12.65
2022-12-13T02:48:23.439Z,12.80
2022-12-13T02:50:52.570Z,13.65
2022-12-13T02:53:21.624Z,13.02
2022-12-13T02:55:48.656Z,12.80
2022-12-13T02:58:25.100Z,14.07
2022-12-13T03:01:29.127Z,12.52
2022-12-13T03:04:02.065Z,11.80
2022-12-13T03:06:51.996Z,11.35
2022-12-13T03:09:36.987Z,12.48
2022-12-13T03:12:25.446Z,12.05
2022-12-13T03:15:08.031Z,11.40
2022-12-13T03:17:41.188Z,11.43
2022-12-13T03:20:22.875Z,8.18
2022-12-13T03:22:51.804Z,10.55
2022-12-13T03:25:31.161Z,10.90
2022-12-13T03:28:01.407Z,10.88
2022-12-13T03:30:29.793Z,11.63
2022-12-13T03:32:56.495Z,11.40
2022-12-13T03:35:23.382Z,10.93
2022-12-13T03:37:50.851Z,10.45
2022-12-13T03:40:19.646Z,10.90
2022-12-13T03:42:47.578Z,10.85
2022-12-13T03:45:14.450Z,10.32
2022-12-13T03:47:41.305Z,11.05
2022-12-13T03:50:27.045Z,11.05
2022-12-13T03:53:01.361Z,11.23
2022-12-13T03:57:54.856Z,10.57
2022-12-13T04:00:21.811Z,10.50
2022-12-13T04:02:48.515Z,11.07
2022-12-13T04:05:15.927Z,12.15
2022-12-13T04:07:48.376Z,12.95
2022-12-13T04:10:26.497Z,11.82
2022-12-13T04:13:13.101Z,12.80
2022-12-13T04:15:40.580Z,12.52
2022-12-13T04:18:07.729Z,11.88
2022-12-13T04:20:34.501Z,12.38
2022-12-13T04:23:01.209Z,12.30
2022-12-13T04:25:37.371Z,12.48
2022-12-13T04:28:04.177Z,12.15
2022-12-13T04:30:34.991Z,12.20
2022-12-13T04:33:02.109Z,11.75
2022-12-13T04:35:29.085Z,12.60
2022-12-13T04:37:57.141Z,12.18
2022-12-13T04:40:23.919Z,12.60
2022-12-13T04:42:53.887Z,12.18
2022-12-13T04:45:22.059Z,12.52
2022-12-13T04:47:49.515Z,13.43
2022-12-13T04:50:16.283Z,13.68
2022-12-13T04:52:43.208Z,13.60
2022-12-13T04:55:10.480Z,12.35
2022-12-13T04:57:37.228Z,12.57
2022-12-13T05:00:06.050Z,13.95
2022-12-13T05:02:32.982Z,14.10
2022-12-13T05:05:00.348Z,12.30
2022-12-13T05:07:27.475Z,13.55
2022-12-13T05:09:54.128Z,13.57
2022-12-13T05:12:22.738Z,12.18
2022-12-13T05:14:51.123Z,13.57
2022-12-13T05:17:18.024Z,13.13
2022-12-13T05:19:45.102Z,12.50
2022-12-13T05:22:20.881Z,13.57
2022-12-13T05:24:48.546Z,13.75
2022-12-13T05:27:23.972Z,12.85
2022-12-13T05:30:04.393Z,13.50
2022-12-13T05:32:43.969Z,12.77
2022-12-13T05:35:21.859Z,12.23
2022-12-13T05:37:53.421Z,12.90
2022-12-13T05:40:20.559Z,13.80
2022-12-13T05:42:47.368Z,13.60
2022-12-13T05:45:15.969Z,13.98
2022-12-13T05:47:42.926Z,13.15
2022-12-13T05:50:10.740Z,14.30
2022-12-13T05:52:37.613Z,13.38
2022-12-13T05:55:04.857Z,13.18
2022-12-13T05:57:32.090Z,14.43
2022-12-13T06:00:01.146Z,13.73
2022-12-13T06:02:28.359Z,13.88
2022-12-13T06:04:55.189Z,13.57
2022-12-13T06:07:21.890Z,13.98
2022-12-13T06:09:48.616Z,13.25
2022-12-13T06:12:31.596Z,14.25
2022-12-13T06:15:01.465Z,13.23
2022-12-13T06:17:45.908Z,13.55
2022-12-13T06:20:24.153Z,14.43
2022-12-13T06:22:52.852Z,13.20
2022-12-13T06:25:31.219Z,13.70
2022-12-13T06:28:00.764Z,13.38
2022-12-13T06:30:31.626Z,13.18
2022-12-13T06:32:58.436Z,13.43
2022-12-13T06:35:28.045Z,13.60
2022-12-13T06:38:01.634Z,13.90
2022-12-13T06:40:30.274Z,13.30
2022-12-13T06:42:57.579Z,13.93
2022-12-13T06:45:25.156Z,13.35
2022-12-13T06:47:51.910Z,13.43
2022-12-13T06:50:18.711Z,13.43
2022-12-13T06:52:47.013Z,13.68
2022-12-13T06:55:14.547Z,13.68
2022-12-13T06:57:41.909Z,13.65
2022-12-13T07:00:10.071Z,13.48
2022-12-13T07:02:38.127Z,14.13
2022-12-13T07:05:05.583Z,13.30
2022-12-13T07:07:32.618Z,14.60
2022-12-13T07:09:59.390Z,13.15
2022-12-13T07:12:26.082Z,12.93
2022-12-13T07:14:52.888Z,14.55
2022-12-13T07:17:33.359Z,15.02
2022-12-13T07:20:03.124Z,13.95
2022-12-13T07:22:29.839Z,13.95
2022-12-13T07:25:03.452Z,13.40
2022-12-13T07:27:30.306Z,14.68
2022-12-13T07:29:57.953Z,13.98
2022-12-13T07:32:24.927Z,14.23
2022-12-13T07:34:51.623Z,14.68
2022-12-13T07:37:30.088Z,14.52
2022-12-13T07:40:03.290Z,14.05
2022-12-13T07:42:30.945Z,11.35
2022-12-13T07:44:57.704Z,14.73
2022-12-13T07:47:31.047Z,15.05
2022-12-13T07:49:58.754Z,11.45
2022-12-13T07:52:25.505Z,14.98
2022-12-13T07:54:52.161Z,14.25
2022-12-13T07:57:18.851Z,15.65
2022-12-13T07:59:45.504Z,14.60
2022-12-13T08:02:13.943Z,15.35
2022-12-13T08:04:42.978Z,15.35
2022-12-13T08:07:10.656Z,15.48
2022-12-13T08:09:37.607Z,15.15
2022-12-13T08:12:05.389Z,14.38
2022-12-13T08:14:32.485Z,14.27
2022-12-13T08:16:59.345Z,14.75
2022-12-13T08:19:26.472Z,15.65
2022-12-13T08:21:56.210Z,15.25
2022-12-13T08:24:26.129Z,15.07
2022-12-13T08:26:52.975Z,14.43
2022-12-13T08:29:32.114Z,14.60
2022-12-13T08:32:12.840Z,15.18
2022-12-13T08:34:41.230Z,14.50
2022-12-13T08:37:09.327Z,15.32
2022-12-13T08:39:37.647Z,15.65
2022-12-13T08:42:16.351Z,15.00
2022-12-13T08:44:54.224Z,16.08
2022-12-13T08:47:25.837Z,15.23
2022-12-13T08:50:04.075Z,15.02
2022-12-13T08:52:38.943Z,14.93
2022-12-13T08:55:08.532Z,15.60
2022-12-13T08:57:39.109Z,15.55
2022-12-13T09:00:07.568Z,15.07
2022-12-13T09:02:38.457Z,14.88
2022-12-13T09:05:07.637Z,15.25
2022-12-13T09:07:41.613Z,15.15
2022-12-13T09:10:26.849Z,15.68
2022-12-13T09:13:01.909Z,15.65
2022-12-13T09:15:34.545Z,15.10
2022-12-13T09:18:04.980Z,15.18
2022-12-13T09:20:41.336Z,14.68
2022-12-13T09:23:22.960Z,14.85
2022-12-13T09:26:05.594Z,14.98
2022-12-13T09:28:33.842Z,14.75
2022-12-13T09:31:00.619Z,15.00
2022-12-13T09:34:08.508Z,14.80
2022-12-13T09:36:35.490Z,14.27
2022-12-13T09:39:02.287Z,14.73
2022-12-13T09:41:33.961Z,13.88
2022-12-13T09:44:32.897Z,14.10
2022-12-13T09:47:13.428Z,14.05
2022-12-13T09:49:43.358Z,13.93
2022-12-13T09:52:21.702Z,13.50
2022-12-13T09:54:53.743Z,14.50
2022-12-13T09:57:32.021Z,14.13
2022-12-13T10:00:08.498Z,14.77
2022-12-13T10:02:43.456Z,14.55
2022-12-13T10:05:21.607Z,13.93
2022-12-13T10:07:52.683Z,14.93
2022-12-13T10:10:19.713Z,14.70
2022-12-13T10:13:08.530Z,14.05
2022-12-13T10:15:38.939Z,14.40
2022-12-13T10:18:08.665Z,13.82
2022-12-13T10:20:36.895Z,14.77
2022-12-13T10:25:55.107Z,14.40
2022-12-13T10:28:33.530Z,13.90
2022-12-13T10:31:01.394Z,14.18
2022-12-13T10:33:40.965Z,14.23
2022-12-13T10:36:16.705Z,14.13
2022-12-13T10:38:45.935Z,13.63
2022-12-13T10:41:36.963Z,14.15
2022-12-13T10:44:25.473Z,13.57
2022-12-13T10:47:17.082Z,13.73
2022-12-13T10:49:52.133Z,13.77
2022-12-13T10:52:43.683Z,13.73
2022-12-13T10:55:43.138Z,13.52
2022-12-13T10:58:19.525Z,12.70
2022-12-13T11:00:47.817Z,13.40
2022-12-13T11:03:31.112Z,13.32
2022-12-13T11:06:07.291Z,12.90
2022-12-13T11:08:34.195Z,13.43
2022-12-13T11:11:05.796Z,13.85
2022-12-13T11:13:51.141Z,13.00
2022-12-13T11:16:41.668Z,13.02
2022-12-13T11:19:17.253Z,13.48
2022-12-13T11:21:49.056Z,13.05
2022-12-13T11:24:24.095Z,13.88
2022-12-13T11:27:07.801Z,13.30
2022-12-13T11:30:11.664Z,14.82
2022-12-13T11:32:59.297Z,13.63
2022-12-13T11:36:00.534Z,13.48
2022-12-13T11:38:29.991Z,13.38
2022-12-13T11:41:12.988Z,13.68
2022-12-13T11:44:28.795Z,12.90
2022-12-13T11:46:59.579Z,13.38
2022-12-13T11:49:45.616Z,12.80
2022-12-13T11:52:19.109Z,13.10
2022-12-13T11:55:17.600Z,13.75
2022-12-13T11:57:57.122Z,12.75
2022-12-13T12:00:34.335Z,12.65
2022-12-13T12:03:29.011Z,13.27
2022-12-13T12:06:07.578Z,9.35
2022-12-13T12:08:41.619Z,13.23
2022-12-13T12:11:36.080Z,11.93
2022-12-13T12:14:22.200Z,11.45
2022-12-13T12:16:51.551Z,12.25
2022-12-13T12:19:25.176Z,12.60
2022-12-13T12:22:34.153Z,12.27
2022-12-13T12:25:22.616Z,12.20
2022-12-13T12:28:01.995Z,11.63
2022-12-13T12:30:58.512Z,12.77
2022-12-13T12:33:33.137Z,12.70
2022-12-13T12:36:36.321Z,13.27
2022-12-13T12:39:26.475Z,12.25
2022-12-13T12:42:13.773Z,12.02
2022-12-13T12:44:50.595Z,12.55
2022-12-13T12:48:41.326Z,12.27
2022-12-13T12:51:04.907Z,12.40
2022-12-13T12:53:41.761Z,12.45
2022-12-13T12:56:29.265Z,11.75
2022-12-13T12:59:11.801Z,12.93
2022-12-13T13:01:54.744Z,11.70
2022-12-13T13:04:27.213Z,11.32
2022-12-13T13:07:25.577Z,12.77
2022-12-13T13:09:54.918Z,11.65
2022-12-13T13:12:30.493Z,11.40
2022-12-13T13:14:57.823Z,12.05
2022-12-13T13:17:24.577Z,11.48
2022-12-13T13:20:13.559Z,10.98
2022-12-13T13:22:42.763Z,10.90
2022-12-13T13:25:27.394Z,12.30
2022-12-13T13:28:14.922Z,12.13
2022-12-13T13:31:08.953Z,11.80
2022-12-13T13:33:50.090Z,8.40
2022-12-13T13:36:46.623Z,10.23
2022-12-13T13:39:19.402Z,10.98
2022-12-13T13:42:11.015Z,11.48
2022-12-13T13:44:49.733Z,11.40
2022-12-13T13:47:19.583Z,12.15
2022-12-13T13:50:02.141Z,10.07
2022-12-13T13:52:56.220Z,11.20
2022-12-13T13:56:01.827Z,12.40
2022-12-13T13:58:29.107Z,10.95
2022-12-13T14:01:11.210Z,10.95
2022-12-13T14:04:12.812Z,12.13
2022-12-13T14:06:53.147Z,11.25
2022-12-13T14:09:43.475Z,11.23
2022-12-13T14:12:22.145Z,11.20
2022-12-13T14:15:23.548Z,12.60
2022-12-13T14:17:56.482Z,12.35
2022-12-13T14:21:03.615Z,12.60
2022-12-13T14:23:39.879Z,12.00
2022-12-13T14:26:15.407Z,12.63
2022-12-13T14:28:46.699Z,12.00
2022-12-13T14:31:35.083Z,12.77
2022-12-13T14:34:03.155Z,12.02
2022-12-13T14:36:35.112Z,13.18
2022-12-13T14:39:25.007Z,11.80
2022-12-13T14:41:56.610Z,12.98
2022-12-13T14:44:29.697Z,12.50
2022-12-13T14:47:02.368Z,12.52
2022-12-13T14:49:33.559Z,13.45
2022-12-13T14:52:07.337Z,13.82
2022-12-13T14:55:01.641Z,12.25
2022-12-13T14:57:30.531Z,10.45
2022-12-13T14:59:59.444Z,12.27
2022-12-13T15:02:32.511Z,13.95
2022-12-13T15:05:01.614Z,13.95
2022-12-13T15:07:36.016Z,13.43
2022-12-13T15:10:16.175Z,12.68
2022-12-13T15:12:44.664Z,13.00
2022-12-13T15:15:35.557Z,13.00
2022-12-13T15:18:20.499Z,13.88
2022-12-13T15:20:48.820Z,13.43
2022-12-13T15:23:27.413Z,13.32
2022-12-13T15:26:31.852Z,13.60
2022-12-13T15:29:09.410Z,13.40
2022-12-13T15:31:38.620Z,14.05
2022-12-13T15:34:29.071Z,13.38
2022-12-13T15:37:29.593Z,13.23
2022-12-13T15:40:00.946Z,13.55
2022-12-13T15:42:39.054Z,13.13
2022-12-13T15:45:17.391Z,13.60
2022-12-13T15:47:46.810Z,12.55
2022-12-13T15:50:37.311Z,12.60
2022-12-13T15:53:24.193Z,13.63
2022-12-13T15:55:51.349Z,13.43
2022-12-13T15:58:27.327Z,13.35
2022-12-13T16:00:54.219Z,14.57
2022-12-13T16:03:24.863Z,13.68
2022-12-13T16:05:54.966Z,13.32
2022-12-13T16:08:21.633Z,14.05
2022-12-13T16:10:50.118Z,14.23
2022-12-13T16:13:28.007Z,13.55
2022-12-13T16:16:00.479Z,14.15
2022-12-13T16:18:46.180Z,14.15
2022-12-13T16:21:14.263Z,13.75
2022-12-13T16:23:41.126Z,13.38
2022-12-13T16:26:21.564Z,14.25
2022-12-13T16:28:48.358Z,13.90
2022-12-13T16:31:23.807Z,15.25
2022-12-13T16:33:50.672Z,16.23
2022-12-13T16:36:17.831Z,14.13
2022-12-13T16:38:44.673Z,14.77
2022-12-13T16:41:11.656Z,13.45
2022-12-13T16:43:44.782Z,14.35
2022-12-13T16:47:12.089Z,10.10
2022-12-13T16:49:02.135Z,14.10
2022-12-13T16:51:28.836Z,13.52
2022-12-13T16:53:55.526Z,14.13
2022-12-13T16:56:22.252Z,13.93
2022-12-13T16:58:50.536Z,12.52
2022-12-13T17:01:21.076Z,13.60
2022-12-13T17:03:48.092Z,13.70
2022-12-13T17:06:20.248Z,14.75
2022-12-13T17:08:47.005Z,14.13
2022-12-13T17:11:18.084Z,14.07
2022-12-13T17:13:47.563Z,13.27
2022-12-13T17:16:14.499Z,13.23
2022-12-13T17:18:41.845Z,13.55
2022-12-13T17:21:10.253Z,12.98
2022-12-13T17:23:37.416Z,13.43
2022-12-13T17:26:09.329Z,12.70
2022-12-13T17:28:36.157Z,13.52
2022-12-13T17:31:13.643Z,14.30
2022-12-13T17:33:41.236Z,14.00
2022-12-13T17:36:09.594Z,13.82
2022-12-13T17:38:36.929Z,14.15
2022-12-13T17:41:03.809Z,12.82
2022-12-13T17:43:34.748Z,13.45
2022-12-13T17:46:16.879Z,14.27
2022-12-13T17:48:45.527Z,14.00
2022-12-13T17:51:13.270Z,14.15
2022-12-13T17:53:41.453Z,14.60
2022-12-13T17:56:15.784Z,15.00
2022-12-13T17:58:42.723Z,14.20
2022-12-13T18:01:18.790Z,14.50
2022-12-13T18:03:47.819Z,14.43
2022-12-13T18:06:15.327Z,14.32
2022-12-13T18:08:44.420Z,14.55
2022-12-13T18:13:59.395Z,13.98
2022-12-13T18:16:34.152Z,14.55
2022-12-13T18:19:05.072Z,13.98
2022-12-13T18:21:31.868Z,14.10
2022-12-13T18:23:59.904Z,13.98
2022-12-13T18:26:26.634Z,13.82
2022-12-13T18:28:53.420Z,15.00
2022-12-13T18:31:23.655Z,14.07
2022-12-13T18:33:52.748Z,15.30
2022-12-13T18:36:21.602Z,15.25
2022-12-13T18:38:48.581Z,13.98
2022-12-13T18:41:24.420Z,14.13
2022-12-13T18:43:59.536Z,14.45
2022-12-13T18:46:27.742Z,14.15
2022-12-13T18:48:54.756Z,14.48
2022-12-13T18:51:21.512Z,14.52
2022-12-13T18:53:48.477Z,13.90
2022-12-13T18:56:19.017Z,15.48
2022-12-13T18:58:48.753Z,13.30
2022-12-13T19:01:17.210Z,13.70
2022-12-13T19:03:46.125Z,14.40
2022-12-13T19:06:19.340Z,14.27
2022-12-13T19:08:54.410Z,15.47
2022-12-13T19:11:21.941Z,14.85
2022-12-13T19:13:49.400Z,14.95
2022-12-13T19:16:19.171Z,14.30
2022-12-13T19:18:46.248Z,14.35
2022-12-13T19:21:19.031Z,14.10
2022-12-13T19:23:51.323Z,14.27
2022-12-13T19:26:22.551Z,13.75
2022-12-13T19:28:49.416Z,14.75
2022-12-13T19:31:16.340Z,14.18
2022-12-13T19:33:43.612Z,14.57
2022-12-13T19:36:11.370Z,14.45
2022-12-13T19:38:39.352Z,13.52
2022-12-13T19:41:11.085Z,14.43
2022-12-13T19:43:37.962Z,14.30
2022-12-13T19:46:05.323Z,14.35
2022-12-13T19:48:32.820Z,15.00
2022-12-13T19:51:01.496Z,14.70
2022-12-13T19:53:29.957Z,14.85
2022-12-13T19:55:56.931Z,14.70
2022-12-13T19:58:24.840Z,15.15
2022-12-13T20:00:52.143Z,15.30
2022-12-13T20:03:19.229Z,14.05
2022-12-13T20:05:56.030Z,13.60
2022-12-13T20:08:22.767Z,14.43
2022-12-13T20:10:58.181Z,14.05
2022-12-13T20:13:25.917Z,14.25
2022-12-13T20:15:53.114Z,14.30
2022-12-13T20:18:20.104Z,13.95
2022-12-13T20:21:10.403Z,15.27
2022-12-13T20:23:35.345Z,13.80
2022-12-13T20:26:08.570Z,14.32
2022-12-13T20:28:35.302Z,13.53
2022-12-13T20:31:11.740Z,14.55
2022-12-13T20:33:39.632Z,14.38
2022-12-13T20:36:24.151Z,13.95
2022-12-13T20:38:52.822Z,14.52
2022-12-13T20:41:19.610Z,15.20
2022-12-13T20:43:48.215Z,15.25
2022-12-13T20:46:15.611Z,14.98
2022-12-13T20:48:45.145Z,15.20
2022-12-13T20:51:15.319Z,14.32
2022-12-13T20:53:44.233Z,14.52
2022-12-13T20:56:14.612Z,15.73
2022-12-13T20:58:42.527Z,15.38
2022-12-13T21:01:15.123Z,14.95
2022-12-13T21:03:42.009Z,14.32
2022-12-13T21:06:08.847Z,14.95
2022-12-13T21:08:54.231Z,15.20
2022-12-13T21:11:26.781Z,14.68
2022-12-13T21:14:20.450Z,15.25
2022-12-13T21:19:28.529Z,14.95
2022-12-13T21:21:56.655Z,14.27
2022-12-13T21:24:25.439Z,14.70
2022-12-13T21:26:52.546Z,15.05
2022-12-13T21:29:19.526Z,15.13
2022-12-13T21:31:49.866Z,14.38
2022-12-13T21:34:18.092Z,15.73
2022-12-13T21:36:46.986Z,14.93
2022-12-13T21:39:22.855Z,15.15
2022-12-13T21:41:50.076Z,15.75
2022-12-13T21:44:18.151Z,16.33
2022-12-13T21:47:11.305Z,16.98
2022-12-13T21:49:31.878Z,17.00
2022-12-13T21:51:58.633Z,15.70
2022-12-13T21:54:25.407Z,16.42
2022-12-13T21:57:10.906Z,15.70
2022-12-13T21:59:37.770Z,14.57
2022-12-13T22:02:18.172Z,14.68
2022-12-13T22:04:45.319Z,15.48
2022-12-13T22:07:18.197Z,15.98
2022-12-13T22:09:46.566Z,16.05
2022-12-13T22:12:40.702Z,15.40
2022-12-13T22:15:15.669Z,15.32
2022-12-13T22:17:43.253Z,16.30
2022-12-13T22:20:13.778Z,16.10
2022-12-13T22:22:41.952Z,15.57
2022-12-13T22:25:09.549Z,15.90
2022-12-13T22:27:36.515Z,14.77
2022-12-13T22:30:04.341Z,16.45
2022-12-13T22:32:32.486Z,16.73
2022-12-13T22:34:59.357Z,15.82
2022-12-13T22:37:26.425Z,17.10
2022-12-13T22:39:53.219Z,16.27
2022-12-13T22:42:20.482Z,15.95
2022-12-13T22:44:47.878Z,15.45
2022-12-13T22:47:14.573Z,16.40
2022-12-13T22:49:41.305Z,16.88
2022-12-13T22:52:08.570Z,16.95
2022-12-13T22:54:35.837Z,17.05
2022-12-13T22:57:02.735Z,16.55
2022-12-13T22:59:29.713Z,17.48
2022-12-13T23:02:02.047Z,16.98
2022-12-13T23:04:30.343Z,16.80
2022-12-13T23:06:57.169Z,17.02
2022-12-13T23:09:23.882Z,14.95
2022-12-13T23:12:09.017Z,16.13
2022-12-13T23:14:35.837Z,17.02
2022-12-13T23:17:03.438Z,17.17
2022-12-13T23:19:49.053Z,16.92
2022-12-13T23:22:18.042Z,16.15
2022-12-13T23:24:44.814Z,16.88
2022-12-13T23:27:11.606Z,16.38
2022-12-13T23:29:38.580Z,16.42
2022-12-13T23:32:05.337Z,17.80
2022-12-13T23:34:32.370Z,18.00
2022-12-13T23:36:59.209Z,16.25
2022-12-13T23:39:26.024Z,16.05
2022-12-13T23:41:52.786Z,16.13
2022-12-13T23:44:19.575Z,18.38
2022-12-13T23:46:48.634Z,17.50
2022-12-13T23:49:16.307Z,18.10
2022-12-13T23:51:43.237Z,17.65
2022-12-13T23:54:16.253Z,17.25
2022-12-13T23:56:43.210Z,17.38
2022-12-13T23:59:10.166Z,16.95
